sensor_id;sensor_type;location;lat;lon;timestamp;P1;durP1;ratioP1;P2;durP2;ratioP2
67554;SDS011;54385;53.516;49.456;2024-01-10T00:01:19;3.47;;;1.83;;
67554;SDS011;54385;53.516;49.456;2024-01-10T00:03:46;2.63;;;1.60;;
67554;SDS011;54385;53.516;49.456;2024-01-10T00:06:13;3.75;;;1.60;;
67554;SDS011;54385;53.516;49.456;2024-01-10T00:08:40;2.75;;;1.58;;
67554;SDS011;54385;53.516;49.456;2024-01-10T00:11:06;2.47;;;1.50;;
67554;SDS011;54385;53.516;49.456;2024-01-10T00:13:33;3.58;;;1.60;;
67554;SDS011;54385;53.516;49.456;2024-01-10T00:16:00;2.38;;;1.40;;
67554;SDS011;54385;53.516;49.456;2024-01-10T00:18:27;2.72;;;1.58;;
67554;SDS011;54385;53.516;49.456;2024-01-10T00:20:54;2.40;;;1.58;;
67554;SDS011;54385;53.516;49.456;2024-01-10T00:23:21;3.10;;;1.48;;
67554;SDS011;54385;53.516;49.456;2024-01-10T00:25:48;2.08;;;1.20;;
67554;SDS011;54385;53.516;49.456;2024-01-10T00:28:15;2.47;;;1.40;;
67554;SDS011;54385;53.516;49.456;2024-01-10T00:30:45;1.75;;;1.20;;
67554;SDS011;54385;53.516;49.456;2024-01-10T00:33:14;2.80;;;1.50;;
67554;SDS011;54385;53.516;49.456;2024-01-10T00:35:41;3.17;;;1.52;;
67554;SDS011;54385;53.516;49.456;2024-01-10T00:38:08;2.17;;;1.25;;
67554;SDS011;54385;53.516;49.456;2024-01-10T00:40:35;2.17;;;1.33;;
67554;SDS011;54385;53.516;49.456;2024-01-10T00:43:02;1.48;;;1.08;;
67554;SDS011;54385;53.516;49.456;2024-01-10T00:45:29;2.25;;;1.23;;
67554;SDS011;54385;53.516;49.456;2024-01-10T00:47:56;2.80;;;1.50;;
67554;SDS011;54385;53.516;49.456;2024-01-10T00:50:23;2.35;;;1.42;;
67554;SDS011;54385;53.516;49.456;2024-01-10T00:52:50;2.33;;;1.45;;
67554;SDS011;54385;53.516;49.456;2024-01-10T00:55:16;1.98;;;1.30;;
67554;SDS011;54385;53.516;49.456;2024-01-10T00:57:43;2.15;;;1.27;;
67554;SDS011;54385;53.516;49.456;2024-01-10T01:00:09;2.78;;;1.48;;
67554;SDS011;54385;53.516;49.456;2024-01-10T01:02:36;2.78;;;1.27;;
67554;SDS011;54385;53.516;49.456;2024-01-10T01:05:06;2.33;;;1.42;;
67554;SDS011;54385;53.516;49.456;2024-01-10T01:07:33;2.58;;;1.20;;
67554;SDS011;54385;53.516;49.456;2024-01-10T01:09:59;1.75;;;1.08;;
67554;SDS011;54385;53.516;49.456;2024-01-10T01:12:26;1.83;;;1.25;;
67554;SDS011;54385;53.516;49.456;2024-01-10T01:14:53;1.92;;;1.38;;
67554;SDS011;54385;53.516;49.456;2024-01-10T01:17:19;2.13;;;1.42;;
67554;SDS011;54385;53.516;49.456;2024-01-10T01:19:45;2.25;;;1.50;;
67554;SDS011;54385;53.516;49.456;2024-01-10T01:22:12;2.13;;;1.27;;
67554;SDS011;54385;53.516;49.456;2024-01-10T01:24:41;1.95;;;1.10;;
67554;SDS011;54385;53.516;49.456;2024-01-10T01:27:13;1.48;;;0.98;;
67554;SDS011;54385;53.516;49.456;2024-01-10T01:29:39;2.00;;;1.13;;
67554;SDS011;54385;53.516;49.456;2024-01-10T01:32:06;1.38;;;1.05;;
67554;SDS011;54385;53.516;49.456;2024-01-10T01:34:36;2.00;;;1.20;;
67554;SDS011;54385;53.516;49.456;2024-01-10T01:37:03;1.92;;;1.20;;
67554;SDS011;54385;53.516;49.456;2024-01-10T01:39:30;1.83;;;1.05;;
67554;SDS011;54385;53.516;49.456;2024-01-10T01:41:57;1.80;;;1.00;;
67554;SDS011;54385;53.516;49.456;2024-01-10T01:44:24;2.60;;;1.20;;
67554;SDS011;54385;53.516;49.456;2024-01-10T01:46:51;2.22;;;0.90;;
67554;SDS011;54385;53.516;49.456;2024-01-10T01:49:20;1.77;;;0.98;;
67554;SDS011;54385;53.516;49.456;2024-01-10T01:51:48;1.95;;;1.02;;
67554;SDS011;54385;53.516;49.456;2024-01-10T01:54:15;1.60;;;1.00;;
67554;SDS011;54385;53.516;49.456;2024-01-10T01:56:42;1.58;;;1.00;;
67554;SDS011;54385;53.516;49.456;2024-01-10T01:59:10;1.80;;;1.02;;
67554;SDS011;54385;53.516;49.456;2024-01-10T02:01:41;1.60;;;1.10;;
67554;SDS011;54385;53.516;49.456;2024-01-10T02:04:08;1.92;;;1.02;;
67554;SDS011;54385;53.516;49.456;2024-01-10T02:06:34;2.00;;;1.00;;
67554;SDS011;54385;53.516;49.456;2024-01-10T02:09:01;2.17;;;1.20;;
67554;SDS011;54385;53.516;49.456;2024-01-10T02:11:29;1.40;;;0.88;;
67554;SDS011;54385;53.516;49.456;2024-01-10T02:13:57;1.80;;;1.00;;
67554;SDS011;54385;53.516;49.456;2024-01-10T02:16:24;1.33;;;0.80;;
67554;SDS011;54385;53.516;49.456;2024-01-10T02:18:51;1.80;;;1.17;;
67554;SDS011;54385;53.516;49.456;2024-01-10T02:21:22;1.50;;;1.10;;
67554;SDS011;54385;53.516;49.456;2024-01-10T02:23:52;1.98;;;0.90;;
67554;SDS011;54385;53.516;49.456;2024-01-10T02:26:19;1.65;;;0.93;;
67554;SDS011;54385;53.516;49.456;2024-01-10T02:28:46;1.50;;;0.95;;
67554;SDS011;54385;53.516;49.456;2024-01-10T02:31:13;2.10;;;1.30;;
67554;SDS011;54385;53.516;49.456;2024-01-10T02:33:40;1.30;;;0.80;;
67554;SDS011;54385;53.516;49.456;2024-01-10T02:36:06;2.00;;;1.10;;
67554;SDS011;54385;53.516;49.456;2024-01-10T02:38:33;1.33;;;0.80;;
67554;SDS011;54385;53.516;49.456;2024-01-10T02:41:00;2.25;;;0.90;;
67554;SDS011;54385;53.516;49.456;2024-01-10T02:43:29;1.58;;;0.90;;
67554;SDS011;54385;53.516;49.456;2024-01-10T02:46:05;1.63;;;1.00;;
67554;SDS011;54385;53.516;49.456;2024-01-10T02:48:32;1.40;;;1.00;;
67554;SDS011;54385;53.516;49.456;2024-01-10T02:51:05;1.33;;;1.00;;
67554;SDS011;54385;53.516;49.456;2024-01-10T02:53:40;2.00;;;1.10;;
67554;SDS011;54385;53.516;49.456;2024-01-10T02:56:09;1.60;;;0.90;;
67554;SDS011;54385;53.516;49.456;2024-01-10T02:58:43;1.17;;;0.90;;
67554;SDS011;54385;53.516;49.456;2024-01-10T03:01:10;1.73;;;0.98;;
67554;SDS011;54385;53.516;49.456;2024-01-10T03:03:37;1.48;;;0.80;;
67554;SDS011;54385;53.516;49.456;2024-01-10T03:06:03;1.35;;;0.70;;
67554;SDS011;54385;53.516;49.456;2024-01-10T03:08:32;1.20;;;0.80;;
67554;SDS011;54385;53.516;49.456;2024-01-10T03:10:58;1.70;;;0.93;;
67554;SDS011;54385;53.516;49.456;2024-01-10T03:13:25;1.02;;;0.80;;
67554;SDS011;54385;53.516;49.456;2024-01-10T03:15:52;1.88;;;1.08;;
67554;SDS011;54385;53.516;49.456;2024-01-10T03:18:18;1.70;;;0.80;;
67554;SDS011;54385;53.516;49.456;2024-01-10T03:20:45;1.40;;;0.80;;
67554;SDS011;54385;53.516;49.456;2024-01-10T03:23:14;2.05;;;1.10;;
67554;SDS011;54385;53.516;49.456;2024-01-10T03:25:44;2.15;;;1.20;;
67554;SDS011;54385;53.516;49.456;2024-01-10T03:28:23;1.33;;;1.05;;
67554;SDS011;54385;53.516;49.456;2024-01-10T03:30:50;2.80;;;1.45;;
67554;SDS011;54385;53.516;49.456;2024-01-10T03:33:17;2.30;;;1.40;;
67554;SDS011;54385;53.516;49.456;2024-01-10T03:35:55;1.85;;;1.27;;
67554;SDS011;54385;53.516;49.456;2024-01-10T03:38:22;2.55;;;1.52;;
67554;SDS011;54385;53.516;49.456;2024-01-10T03:40:48;3.25;;;1.80;;
67554;SDS011;54385;53.516;49.456;2024-01-10T03:43:17;3.13;;;1.73;;
67554;SDS011;54385;53.516;49.456;2024-01-10T03:45:44;3.20;;;1.95;;
67554;SDS011;54385;53.516;49.456;2024-01-10T03:48:10;2.88;;;1.80;;
67554;SDS011;54385;53.516;49.456;2024-01-10T03:50:37;2.88;;;1.95;;
67554;SDS011;54385;53.516;49.456;2024-01-10T03:53:04;3.67;;;2.20;;
67554;SDS011;54385;53.516;49.456;2024-01-10T03:55:30;2.80;;;1.77;;
67554;SDS011;54385;53.516;49.456;2024-01-10T03:57:57;2.67;;;2.00;;
67554;SDS011;54385;53.516;49.456;2024-01-10T04:03:49;4.85;;;1.95;;
67554;SDS011;54385;53.516;49.456;2024-01-10T04:06:16;4.47;;;1.92;;
67554;SDS011;54385;53.516;49.456;2024-01-10T04:08:45;4.03;;;2.25;;
67554;SDS011;54385;53.516;49.456;2024-01-10T04:11:15;4.63;;;1.90;;
67554;SDS011;54385;53.516;49.456;2024-01-10T04:13:41;5.22;;;2.03;;
67554;SDS011;54385;53.516;49.456;2024-01-10T04:16:18;3.55;;;2.25;;
67554;SDS011;54385;53.516;49.456;2024-01-10T04:21:18;3.95;;;1.95;;
67554;SDS011;54385;53.516;49.456;2024-01-10T04:24:00;3.53;;;1.65;;
67554;SDS011;54385;53.516;49.456;2024-01-10T04:26:32;5.65;;;1.90;;
67554;SDS011;54385;53.516;49.456;2024-01-10T04:32:24;4.88;;;1.80;;
67554;SDS011;54385;53.516;49.456;2024-01-10T04:35:29;5.47;;;2.30;;
67554;SDS011;54385;53.516;49.456;2024-01-10T04:37:57;3.72;;;1.75;;
67554;SDS011;54385;53.516;49.456;2024-01-10T04:40:25;4.20;;;2.00;;
67554;SDS011;54385;53.516;49.456;2024-01-10T04:42:56;3.70;;;1.95;;
67554;SDS011;54385;53.516;49.456;2024-01-10T04:45:23;4.60;;;2.00;;
67554;SDS011;54385;53.516;49.456;2024-01-10T04:47:51;5.57;;;2.25;;
67554;SDS011;54385;53.516;49.456;2024-01-10T04:50:18;7.50;;;2.10;;
67554;SDS011;54385;53.516;49.456;2024-01-10T04:52:48;4.95;;;1.98;;
67554;SDS011;54385;53.516;49.456;2024-01-10T04:55:24;4.32;;;2.30;;
67554;SDS011;54385;53.516;49.456;2024-01-10T04:58:03;4.25;;;2.47;;
67554;SDS011;54385;53.516;49.456;2024-01-10T05:01:04;3.80;;;2.10;;
67554;SDS011;54385;53.516;49.456;2024-01-10T05:03:35;5.13;;;2.33;;
67554;SDS011;54385;53.516;49.456;2024-01-10T05:06:08;5.20;;;2.90;;
67554;SDS011;54385;53.516;49.456;2024-01-10T05:09:06;3.78;;;2.22;;
67554;SDS011;54385;53.516;49.456;2024-01-10T05:11:37;4.05;;;2.65;;
67554;SDS011;54385;53.516;49.456;2024-01-10T05:14:07;4.72;;;2.83;;
67554;SDS011;54385;53.516;49.456;2024-01-10T05:16:34;7.32;;;3.10;;
67554;SDS011;54385;53.516;49.456;2024-01-10T05:19:01;4.75;;;2.63;;
67554;SDS011;54385;53.516;49.456;2024-01-10T05:21:46;7.30;;;2.65;;
67554;SDS011;54385;53.516;49.456;2024-01-10T05:24:16;4.72;;;2.60;;
67554;SDS011;54385;53.516;49.456;2024-01-10T05:26:45;4.90;;;2.90;;
67554;SDS011;54385;53.516;49.456;2024-01-10T05:29:49;4.80;;;2.47;;
67554;SDS011;54385;53.516;49.456;2024-01-10T05:32:44;4.65;;;2.42;;
67554;SDS011;54385;53.516;49.456;2024-01-10T05:35:14;5.07;;;2.83;;
67554;SDS011;54385;53.516;49.456;2024-01-10T05:37:42;3.25;;;2.33;;
67554;SDS011;54385;53.516;49.456;2024-01-10T05:40:09;4.60;;;2.67;;
67554;SDS011;54385;53.516;49.456;2024-01-10T05:42:40;5.75;;;2.80;;
67554;SDS011;54385;53.516;49.456;2024-01-10T05:45:10;5.57;;;2.70;;
67554;SDS011;54385;53.516;49.456;2024-01-10T05:47:37;5.63;;;2.75;;
67554;SDS011;54385;53.516;49.456;2024-01-10T05:50:05;6.20;;;2.95;;
67554;SDS011;54385;53.516;49.456;2024-01-10T05:52:35;4.57;;;2.78;;
67554;SDS011;54385;53.516;49.456;2024-01-10T05:55:02;5.68;;;2.70;;
67554;SDS011;54385;53.516;49.456;2024-01-10T05:57:37;4.93;;;2.92;;
67554;SDS011;54385;53.516;49.456;2024-01-10T06:00:05;5.30;;;3.15;;
67554;SDS011;54385;53.516;49.456;2024-01-10T06:02:42;5.40;;;3.60;;
67554;SDS011;54385;53.516;49.456;2024-01-10T06:05:13;4.95;;;3.17;;
67554;SDS011;54385;53.516;49.456;2024-01-10T06:07:40;5.95;;;3.38;;
67554;SDS011;54385;53.516;49.456;2024-01-10T06:10:28;5.70;;;3.35;;
67554;SDS011;54385;53.516;49.456;2024-01-10T06:12:59;5.72;;;3.15;;
67554;SDS011;54385;53.516;49.456;2024-01-10T06:15:26;4.38;;;3.17;;
67554;SDS011;54385;53.516;49.456;2024-01-10T06:17:56;4.97;;;3.22;;
67554;SDS011;54385;53.516;49.456;2024-01-10T06:20:28;8.80;;;3.65;;
67554;SDS011;54385;53.516;49.456;2024-01-10T06:23:06;5.68;;;3.35;;
67554;SDS011;54385;53.516;49.456;2024-01-10T06:25:43;5.72;;;3.45;;
67554;SDS011;54385;53.516;49.456;2024-01-10T06:28:50;4.45;;;3.03;;
67554;SDS011;54385;53.516;49.456;2024-01-10T06:31:24;5.82;;;3.42;;
67554;SDS011;54385;53.516;49.456;2024-01-10T06:33:51;5.47;;;3.78;;
67554;SDS011;54385;53.516;49.456;2024-01-10T06:36:17;5.78;;;3.70;;
67554;SDS011;54385;53.516;49.456;2024-01-10T06:38:44;5.40;;;3.20;;
67554;SDS011;54385;53.516;49.456;2024-01-10T06:43:43;5.55;;;3.72;;
67554;SDS011;54385;53.516;49.456;2024-01-10T06:46:14;4.43;;;2.97;;
67554;SDS011;54385;53.516;49.456;2024-01-10T06:48:48;6.50;;;3.63;;
67554;SDS011;54385;53.516;49.456;2024-01-10T06:51:16;6.78;;;3.97;;
67554;SDS011;54385;53.516;49.456;2024-01-10T06:54:03;4.88;;;3.13;;
67554;SDS011;54385;53.516;49.456;2024-01-10T06:56:33;6.25;;;3.45;;
67554;SDS011;54385;53.516;49.456;2024-01-10T06:59:01;5.28;;;3.40;;
67554;SDS011;54385;53.516;49.456;2024-01-10T07:01:37;4.80;;;3.17;;
67554;SDS011;54385;53.516;49.456;2024-01-10T07:04:05;5.30;;;3.85;;
67554;SDS011;54385;53.516;49.456;2024-01-10T07:06:32;6.90;;;3.85;;
67554;SDS011;54385;53.516;49.456;2024-01-10T07:09:02;4.80;;;3.42;;
67554;SDS011;54385;53.516;49.456;2024-01-10T07:11:48;5.55;;;3.30;;
67554;SDS011;54385;53.516;49.456;2024-01-10T07:14:19;6.95;;;3.28;;
67554;SDS011;54385;53.516;49.456;2024-01-10T07:16:57;4.63;;;3.20;;
67554;SDS011;54385;53.516;49.456;2024-01-10T07:22:05;8.27;;;3.25;;
67554;SDS011;54385;53.516;49.456;2024-01-10T07:24:43;5.55;;;3.60;;
67554;SDS011;54385;53.516;49.456;2024-01-10T07:27:26;6.35;;;3.10;;
67554;SDS011;54385;53.516;49.456;2024-01-10T07:29:55;6.28;;;3.30;;
67554;SDS011;54385;53.516;49.456;2024-01-10T07:35:06;5.70;;;3.30;;
67554;SDS011;54385;53.516;49.456;2024-01-10T07:37:38;4.07;;;3.20;;
67554;SDS011;54385;53.516;49.456;2024-01-10T07:40:06;6.55;;;4.00;;
67554;SDS011;54385;53.516;49.456;2024-01-10T07:42:40;6.13;;;3.10;;
67554;SDS011;54385;53.516;49.456;2024-01-10T07:45:07;4.88;;;2.92;;
67554;SDS011;54385;53.516;49.456;2024-01-10T07:47:46;5.03;;;3.20;;
67554;SDS011;54385;53.516;49.456;2024-01-10T07:50:21;4.85;;;3.30;;
67554;SDS011;54385;53.516;49.456;2024-01-10T07:52:55;5.70;;;3.15;;
67554;SDS011;54385;53.516;49.456;2024-01-10T07:56:14;4.65;;;3.22;;
67554;SDS011;54385;53.516;49.456;2024-01-10T07:58:41;6.40;;;3.28;;
67554;SDS011;54385;53.516;49.456;2024-01-10T08:01:11;5.00;;;3.20;;
67554;SDS011;54385;53.516;49.456;2024-01-10T08:03:47;4.03;;;2.97;;
67554;SDS011;54385;53.516;49.456;2024-01-10T08:06:37;5.82;;;3.17;;
67554;SDS011;54385;53.516;49.456;2024-01-10T08:09:09;4.78;;;3.22;;
67554;SDS011;54385;53.516;49.456;2024-01-10T08:11:56;4.57;;;3.08;;
67554;SDS011;54385;53.516;49.456;2024-01-10T08:14:23;5.03;;;3.03;;
67554;SDS011;54385;53.516;49.456;2024-01-10T08:16:50;4.47;;;3.05;;
67554;SDS011;54385;53.516;49.456;2024-01-10T08:19:21;7.38;;;3.20;;
67554;SDS011;54385;53.516;49.456;2024-01-10T08:21:56;5.03;;;3.33;;
67554;SDS011;54385;53.516;49.456;2024-01-10T08:24:25;6.20;;;3.88;;
67554;SDS011;54385;53.516;49.456;2024-01-10T08:26:52;5.50;;;3.30;;
67554;SDS011;54385;53.516;49.456;2024-01-10T08:29:20;4.95;;;3.20;;
67554;SDS011;54385;53.516;49.456;2024-01-10T08:32:09;3.58;;;2.78;;
67554;SDS011;54385;53.516;49.456;2024-01-10T08:34:54;4.55;;;2.92;;
67554;SDS011;54385;53.516;49.456;2024-01-10T08:38:03;5.70;;;3.20;;
67554;SDS011;54385;53.516;49.456;2024-01-10T08:40:32;4.45;;;3.10;;
67554;SDS011;54385;53.516;49.456;2024-01-10T08:47:14;4.00;;;3.00;;
67554;SDS011;54385;53.516;49.456;2024-01-10T08:49:52;4.75;;;3.10;;
67554;SDS011;54385;53.516;49.456;2024-01-10T08:53:22;5.07;;;3.25;;
67554;SDS011;54385;53.516;49.456;2024-01-10T08:55:49;5.15;;;2.95;;
67554;SDS011;54385;53.516;49.456;2024-01-10T08:58:15;5.00;;;3.08;;
67554;SDS011;54385;53.516;49.456;2024-01-10T09:00:42;6.45;;;3.55;;
67554;SDS011;54385;53.516;49.456;2024-01-10T09:07:54;5.70;;;3.58;;
67554;SDS011;54385;53.516;49.456;2024-01-10T09:10:21;6.28;;;3.50;;
67554;SDS011;54385;53.516;49.456;2024-01-10T09:12:47;4.47;;;3.63;;
67554;SDS011;54385;53.516;49.456;2024-01-10T09:15:14;5.13;;;3.70;;
67554;SDS011;54385;53.516;49.456;2024-01-10T09:17:41;4.78;;;3.55;;
67554;SDS011;54385;53.516;49.456;2024-01-10T09:20:14;5.18;;;3.45;;
67554;SDS011;54385;53.516;49.456;2024-01-10T09:22:41;5.20;;;3.30;;
67554;SDS011;54385;53.516;49.456;2024-01-10T09:25:08;6.20;;;3.85;;
67554;SDS011;54385;53.516;49.456;2024-01-10T09:27:38;6.40;;;4.18;;
67554;SDS011;54385;53.516;49.456;2024-01-10T09:30:12;6.10;;;3.80;;
67554;SDS011;54385;53.516;49.456;2024-01-10T09:32:48;5.80;;;3.50;;
67554;SDS011;54385;53.516;49.456;2024-01-10T09:35:21;4.47;;;3.08;;
67554;SDS011;54385;53.516;49.456;2024-01-10T09:37:54;5.28;;;3.70;;
67554;SDS011;54385;53.516;49.456;2024-01-10T09:40:30;5.63;;;4.00;;
67554;SDS011;54385;53.516;49.456;2024-01-10T09:43:00;5.75;;;3.70;;
67554;SDS011;54385;53.516;49.456;2024-01-10T09:45:26;5.55;;;3.88;;
67554;SDS011;54385;53.516;49.456;2024-01-10T09:48:00;5.22;;;3.83;;
67554;SDS011;54385;53.516;49.456;2024-01-10T09:50:28;5.60;;;3.70;;
67554;SDS011;54385;53.516;49.456;2024-01-10T09:53:20;4.82;;;3.42;;
67554;SDS011;54385;53.516;49.456;2024-01-10T09:55:55;7.60;;;3.92;;
67554;SDS011;54385;53.516;49.456;2024-01-10T09:58:27;5.55;;;3.85;;
67554;SDS011;54385;53.516;49.456;2024-01-10T10:00:56;5.25;;;3.97;;
67554;SDS011;54385;53.516;49.456;2024-01-10T10:03:26;7.35;;;4.03;;
67554;SDS011;54385;53.516;49.456;2024-01-10T10:05:53;8.93;;;4.30;;
67554;SDS011;54385;53.516;49.456;2024-01-10T10:12:20;5.20;;;3.78;;
67554;SDS011;54385;53.516;49.456;2024-01-10T10:14:46;6.22;;;4.10;;
67554;SDS011;54385;53.516;49.456;2024-01-10T10:17:15;5.95;;;4.32;;
67554;SDS011;54385;53.516;49.456;2024-01-10T10:19:43;6.18;;;3.78;;
67554;SDS011;54385;53.516;49.456;2024-01-10T10:22:13;7.10;;;3.70;;
67554;SDS011;54385;53.516;49.456;2024-01-10T10:24:42;5.93;;;4.18;;
67554;SDS011;54385;53.516;49.456;2024-01-10T10:27:25;5.22;;;4.18;;
67554;SDS011;54385;53.516;49.456;2024-01-10T10:30:04;6.57;;;4.15;;
67554;SDS011;54385;53.516;49.456;2024-01-10T10:32:42;7.20;;;4.50;;
67554;SDS011;54385;53.516;49.456;2024-01-10T10:35:09;6.13;;;4.10;;
67554;SDS011;54385;53.516;49.456;2024-01-10T10:37:42;5.80;;;3.90;;
67554;SDS011;54385;53.516;49.456;2024-01-10T10:40:08;6.88;;;4.72;;
67554;SDS011;54385;53.516;49.456;2024-01-10T10:43:01;6.43;;;4.40;;
67554;SDS011;54385;53.516;49.456;2024-01-10T10:45:43;6.05;;;3.78;;
67554;SDS011;54385;53.516;49.456;2024-01-10T10:51:25;6.32;;;4.22;;
67554;SDS011;54385;53.516;49.456;2024-01-10T10:54:10;6.82;;;4.28;;
67554;SDS011;54385;53.516;49.456;2024-01-10T10:56:51;6.05;;;4.05;;
67554;SDS011;54385;53.516;49.456;2024-01-10T10:59:31;7.43;;;4.32;;
67554;SDS011;54385;53.516;49.456;2024-01-10T11:02:18;5.80;;;3.72;;
67554;SDS011;54385;53.516;49.456;2024-01-10T11:04:54;6.97;;;4.15;;
67554;SDS011;54385;53.516;49.456;2024-01-10T11:07:33;6.03;;;4.10;;
67554;SDS011;54385;53.516;49.456;2024-01-10T11:10:21;6.10;;;4.07;;
67554;SDS011;54385;53.516;49.456;2024-01-10T11:13:37;5.50;;;3.80;;
67554;SDS011;54385;53.516;49.456;2024-01-10T11:25:08;4.95;;;3.85;;
67554;SDS011;54385;53.516;49.456;2024-01-10T11:27:36;7.43;;;4.03;;
67554;SDS011;54385;53.516;49.456;2024-01-10T11:30:03;5.63;;;3.90;;
67554;SDS011;54385;53.516;49.456;2024-01-10T11:32:40;5.75;;;3.63;;
67554;SDS011;54385;53.516;49.456;2024-01-10T11:35:20;7.00;;;3.85;;
67554;SDS011;54385;53.516;49.456;2024-01-10T11:37:52;6.63;;;4.18;;
67554;SDS011;54385;53.516;49.456;2024-01-10T11:40:48;5.97;;;3.70;;
67554;SDS011;54385;53.516;49.456;2024-01-10T11:43:14;6.95;;;3.60;;
67554;SDS011;54385;53.516;49.456;2024-01-10T11:45:50;5.60;;;3.70;;
67554;SDS011;54385;53.516;49.456;2024-01-10T11:48:26;6.20;;;3.67;;
67554;SDS011;54385;53.516;49.456;2024-01-10T11:50:56;4.90;;;3.30;;
67554;SDS011;54385;53.516;49.456;2024-01-10T11:53:39;6.53;;;4.35;;
67554;SDS011;54385;53.516;49.456;2024-01-10T11:56:14;5.97;;;3.65;;
67554;SDS011;54385;53.516;49.456;2024-01-10T11:58:53;6.03;;;3.58;;
67554;SDS011;54385;53.516;49.456;2024-01-10T12:01:27;5.60;;;3.67;;
67554;SDS011;54385;53.516;49.456;2024-01-10T12:03:56;5.70;;;3.67;;
67554;SDS011;54385;53.516;49.456;2024-01-10T12:06:38;5.18;;;3.42;;
67554;SDS011;54385;53.516;49.456;2024-01-10T12:09:16;6.05;;;3.45;;
67554;SDS011;54385;53.516;49.456;2024-01-10T12:11:46;5.85;;;3.85;;
67554;SDS011;54385;53.516;49.456;2024-01-10T12:14:14;4.60;;;3.50;;
67554;SDS011;54385;53.516;49.456;2024-01-10T12:16:41;5.78;;;3.50;;
67554;SDS011;54385;53.516;49.456;2024-01-10T12:19:07;4.95;;;3.38;;
67554;SDS011;54385;53.516;49.456;2024-01-10T12:21:34;5.10;;;3.42;;
67554;SDS011;54385;53.516;49.456;2024-01-10T12:24:02;5.22;;;3.33;;
67554;SDS011;54385;53.516;49.456;2024-01-10T12:26:33;4.57;;;3.55;;
67554;SDS011;54385;53.516;49.456;2024-01-10T12:29:01;6.40;;;3.65;;
67554;SDS011;54385;53.516;49.456;2024-01-10T12:31:39;4.53;;;3.03;;
67554;SDS011;54385;53.516;49.456;2024-01-10T12:34:11;5.70;;;3.65;;
67554;SDS011;54385;53.516;49.456;2024-01-10T12:36:38;5.60;;;3.35;;
67554;SDS011;54385;53.516;49.456;2024-01-10T12:39:16;5.20;;;3.03;;
67554;SDS011;54385;53.516;49.456;2024-01-10T12:41:42;5.03;;;3.30;;
67554;SDS011;54385;53.516;49.456;2024-01-10T12:44:10;5.63;;;3.40;;
67554;SDS011;54385;53.516;49.456;2024-01-10T12:46:50;6.57;;;3.47;;
67554;SDS011;54385;53.516;49.456;2024-01-10T12:49:22;4.80;;;3.22;;
67554;SDS011;54385;53.516;49.456;2024-01-10T12:51:49;5.40;;;3.10;;
67554;SDS011;54385;53.516;49.456;2024-01-10T12:54:16;4.38;;;3.00;;
67554;SDS011;54385;53.516;49.456;2024-01-10T12:56:46;4.18;;;3.10;;
67554;SDS011;54385;53.516;49.456;2024-01-10T12:59:18;4.93;;;3.03;;
67554;SDS011;54385;53.516;49.456;2024-01-10T13:01:48;4.18;;;2.97;;
67554;SDS011;54385;53.516;49.456;2024-01-10T13:04:18;4.57;;;2.97;;
67554;SDS011;54385;53.516;49.456;2024-01-10T13:06:45;4.45;;;3.25;;
67554;SDS011;54385;53.516;49.456;2024-01-10T13:09:14;4.15;;;2.83;;
67554;SDS011;54385;53.516;49.456;2024-01-10T13:11:44;5.53;;;3.35;;
67554;SDS011;54385;53.516;49.456;2024-01-10T13:14:16;5.10;;;3.38;;
67554;SDS011;54385;53.516;49.456;2024-01-10T13:16:48;5.32;;;3.15;;
67554;SDS011;54385;53.516;49.456;2024-01-10T13:19:15;4.43;;;3.17;;
67554;SDS011;54385;53.516;49.456;2024-01-10T13:21:54;4.25;;;2.90;;
67554;SDS011;54385;53.516;49.456;2024-01-10T13:24:23;4.57;;;2.92;;
67554;SDS011;54385;53.516;49.456;2024-01-10T13:26:50;4.30;;;3.17;;
67554;SDS011;54385;53.516;49.456;2024-01-10T13:29:16;4.38;;;3.13;;
67554;SDS011;54385;53.516;49.456;2024-01-10T13:31:43;4.97;;;3.22;;
67554;SDS011;54385;53.516;49.456;2024-01-10T13:34:10;6.63;;;3.25;;
67554;SDS011;54385;53.516;49.456;2024-01-10T13:36:37;4.35;;;3.10;;
67554;SDS011;54385;53.516;49.456;2024-01-10T13:39:07;4.25;;;2.70;;
67554;SDS011;54385;53.516;49.456;2024-01-10T13:41:33;3.63;;;2.70;;
67554;SDS011;54385;53.516;49.456;2024-01-10T13:44:00;3.97;;;3.28;;
67554;SDS011;54385;53.516;49.456;2024-01-10T13:46:26;4.38;;;3.00;;
67554;SDS011;54385;53.516;49.456;2024-01-10T13:48:53;4.53;;;3.25;;
67554;SDS011;54385;53.516;49.456;2024-01-10T13:51:23;4.13;;;2.78;;
67554;SDS011;54385;53.516;49.456;2024-01-10T13:53:49;4.18;;;2.63;;
67554;SDS011;54385;53.516;49.456;2024-01-10T13:56:15;4.10;;;3.30;;
67554;SDS011;54385;53.516;49.456;2024-01-10T13:58:45;4.45;;;2.97;;
67554;SDS011;54385;53.516;49.456;2024-01-10T14:01:18;4.53;;;2.70;;
67554;SDS011;54385;53.516;49.456;2024-01-10T14:03:45;4.40;;;3.10;;
67554;SDS011;54385;53.516;49.456;2024-01-10T14:06:11;3.58;;;2.47;;
67554;SDS011;54385;53.516;49.456;2024-01-10T14:08:38;4.75;;;2.97;;
67554;SDS011;54385;53.516;49.456;2024-01-10T14:11:07;4.72;;;2.78;;
67554;SDS011;54385;53.516;49.456;2024-01-10T14:13:34;4.13;;;2.80;;
67554;SDS011;54385;53.516;49.456;2024-01-10T14:16:01;3.78;;;2.72;;
67554;SDS011;54385;53.516;49.456;2024-01-10T14:18:27;4.13;;;3.00;;
67554;SDS011;54385;53.516;49.456;2024-01-10T14:20:53;3.88;;;2.58;;
67554;SDS011;54385;53.516;49.456;2024-01-10T14:23:23;4.15;;;2.70;;
67554;SDS011;54385;53.516;49.456;2024-01-10T14:25:49;3.55;;;2.53;;
67554;SDS011;54385;53.516;49.456;2024-01-10T14:28:18;4.03;;;2.95;;
67554;SDS011;54385;53.516;49.456;2024-01-10T14:30:46;4.03;;;2.65;;
67554;SDS011;54385;53.516;49.456;2024-01-10T14:33:13;3.55;;;2.38;;
67554;SDS011;54385;53.516;49.456;2024-01-10T14:35:40;3.45;;;2.50;;
67554;SDS011;54385;53.516;49.456;2024-01-10T14:38:07;4.10;;;2.53;;
67554;SDS011;54385;53.516;49.456;2024-01-10T14:40:34;4.05;;;2.60;;
67554;SDS011;54385;53.516;49.456;2024-01-10T14:43:02;4.10;;;2.75;;
67554;SDS011;54385;53.516;49.456;2024-01-10T14:45:28;3.92;;;2.50;;
67554;SDS011;54385;53.516;49.456;2024-01-10T14:47:58;3.92;;;2.70;;
67554;SDS011;54385;53.516;49.456;2024-01-10T14:50:25;4.50;;;2.85;;
67554;SDS011;54385;53.516;49.456;2024-01-10T14:52:51;4.00;;;2.53;;
67554;SDS011;54385;53.516;49.456;2024-01-10T14:55:18;3.75;;;2.65;;
67554;SDS011;54385;53.516;49.456;2024-01-10T14:57:45;3.08;;;2.33;;
67554;SDS011;54385;53.516;49.456;2024-01-10T15:00:12;3.65;;;2.50;;
67554;SDS011;54385;53.516;49.456;2024-01-10T15:02:40;3.05;;;2.25;;
67554;SDS011;54385;53.516;49.456;2024-01-10T15:05:07;4.10;;;2.45;;
67554;SDS011;54385;53.516;49.456;2024-01-10T15:07:33;3.65;;;2.13;;
67554;SDS011;54385;53.516;49.456;2024-01-10T15:10:00;3.63;;;2.60;;
67554;SDS011;54385;53.516;49.456;2024-01-10T15:12:29;3.42;;;2.30;;
67554;SDS011;54385;53.516;49.456;2024-01-10T15:14:55;3.58;;;2.45;;
67554;SDS011;54385;53.516;49.456;2024-01-10T15:17:26;3.17;;;2.15;;
67554;SDS011;54385;53.516;49.456;2024-01-10T15:19:53;3.63;;;2.20;;
67554;SDS011;54385;53.516;49.456;2024-01-10T15:22:23;2.58;;;2.17;;
67554;SDS011;54385;53.516;49.456;2024-01-10T15:24:50;2.53;;;2.03;;
67554;SDS011;54385;53.516;49.456;2024-01-10T15:27:17;3.45;;;2.28;;
67554;SDS011;54385;53.516;49.456;2024-01-10T15:29:44;3.53;;;2.45;;
67554;SDS011;54385;53.516;49.456;2024-01-10T15:32:11;4.05;;;2.70;;
67554;SDS011;54385;53.516;49.456;2024-01-10T15:34:37;4.13;;;2.75;;
67554;SDS011;54385;53.516;49.456;2024-01-10T15:37:06;3.70;;;2.50;;
67554;SDS011;54385;53.516;49.456;2024-01-10T15:39:33;3.30;;;1.90;;